createdAt,value
2019-04-06T00:00:30.529Z,99.99
2019-04-06T00:01:30.514Z,99.99
2019-04-06T00:02:30.504Z,99.99
2019-04-06T00:03:30.492Z,99.99
2019-04-06T00:04:30.481Z,99.99
2019-04-06T00:05:30.508Z,99.99
2019-04-06T00:06:30.465Z,99.99
2019-04-06T00:07:30.449Z,99.99
2019-04-06T00:08:30.439Z,99.99
2019-04-06T00:09:30.448Z,99.99
2019-04-06T00:10:30.454Z,99.99
2019-04-06T00:11:30.406Z,99.99
2019-04-06T00:12:30.396Z,99.99
2019-04-06T00:13:30.385Z,99.99
2019-04-06T00:14:30.376Z,99.99
2019-04-06T00:15:30.364Z,99.99
2019-04-06T00:16:30.354Z,99.99
2019-04-06T00:17:30.343Z,99.99
2019-04-06T00:18:30.333Z,99.99
2019-04-06T00:19:30.370Z,99.99
2019-04-06T00:20:30.311Z,99.99
2019-04-06T00:21:30.300Z,99.99
2019-04-06T00:22:30.291Z,99.99
2019-04-06T00:23:30.294Z,99.99
2019-04-06T00:24:30.268Z,99.99
2019-04-06T00:25:30.260Z,99.99
2019-04-06T00:26:30.247Z,99.99
2019-04-06T00:27:30.237Z,99.99
2019-04-06T00:28:30.246Z,99.99
2019-04-06T00:29:30.214Z,99.99
2019-04-06T00:30:30.209Z,99.99
2019-04-06T00:31:30.194Z,99.99
2019-04-06T00:32:30.187Z,99.99
2019-04-06T00:33:30.172Z,99.99
2019-04-06T00:34:30.162Z,99.99
2019-04-06T00:35:30.156Z,99.99
2019-04-06T00:36:30.139Z,99.99
2019-04-06T00:37:30.128Z,99.99
2019-04-06T00:38:30.118Z,99.99
2019-04-06T00:39:30.117Z,99.99
2019-04-06T00:40:30.096Z,99.99
2019-04-06T00:41:30.085Z,99.99
2019-04-06T00:42:30.077Z,99.99
2019-04-06T00:43:30.063Z,99.99
2019-04-06T00:44:30.053Z,99.99
2019-04-06T00:45:30.077Z,99.99
2019-04-06T00:46:30.033Z,99.99
2019-04-06T00:47:30.065Z,99.99
2019-04-06T00:48:30.011Z,99.99
2019-04-06T00:49:30.000Z,99.99
2019-04-06T00:50:29.989Z,99.99
2019-04-06T00:51:29.978Z,99.99
2019-04-06T00:52:29.967Z,99.99
2019-04-06T00:53:29.958Z,99.99
2019-04-06T00:54:29.948Z,99.99
2019-04-06T00:55:29.935Z,99.99
2019-04-06T00:56:29.925Z,99.99
2019-04-06T00:57:29.915Z,99.99
2019-04-06T00:58:29.917Z,99.99
2019-04-06T00:59:29.893Z,99.99
2019-04-06T01:00:29.884Z,99.99
2019-04-06T01:01:29.877Z,99.99
2019-04-06T01:02:29.862Z,99.99
2019-04-06T01:03:29.850Z,99.99
2019-04-06T01:04:29.840Z,99.99
2019-04-06T01:05:29.831Z,99.99
2019-04-06T01:06:29.821Z,99.99
2019-04-06T01:07:29.808Z,99.99
2019-04-06T01:08:29.798Z,99.99
2019-04-06T01:09:29.788Z,99.99
2019-04-06T01:10:29.778Z,99.99
2019-04-06T01:11:29.766Z,99.99
2019-04-06T01:12:29.756Z,99.99
2019-04-06T01:13:29.746Z,99.99
2019-04-06T01:14:29.735Z,99.99
2019-04-06T01:15:29.725Z,99.99
2019-04-06T01:16:29.718Z,99.99
2019-04-06T01:17:29.707Z,99.99
2019-04-06T01:18:29.696Z,99.99
2019-04-06T01:19:29.682Z,99.99
2019-04-06T01:20:29.672Z,99.99
2019-04-06T01:21:29.662Z,99.99
2019-04-06T01:22:29.656Z,99.99
2019-04-06T01:23:29.643Z,99.99
2019-04-06T01:24:29.629Z,99.99
2019-04-06T01:25:29.620Z,99.99
2019-04-06T01:26:29.609Z,99.99
2019-04-06T01:27:29.598Z,99.99
2019-04-06T01:28:29.588Z,99.99
2019-04-06T01:29:29.577Z,99.99
2019-04-06T01:30:29.575Z,99.99
2019-04-06T01:31:29.557Z,99.99
2019-04-06T01:32:29.546Z,99.99
2019-04-06T01:33:29.535Z,99.99
2019-04-06T01:34:29.526Z,99.99
2019-04-06T01:35:29.588Z,99.99
2019-04-06T01:36:29.508Z,99.99
2019-04-06T01:37:29.492Z,99.99
2019-04-06T01:38:29.492Z,99.99
2019-04-06T01:39:29.498Z,99.99
2019-04-06T01:40:29.463Z,99.99
2019-04-06T01:41:29.449Z,99.99
2019-04-06T01:42:29.439Z,99.99
2019-04-06T01:43:29.428Z,99.99
2019-04-06T01:44:29.419Z,99.99
2019-04-06T01:45:29.409Z,99.99
2019-04-06T01:46:29.397Z,99.99
2019-04-06T01:47:29.385Z,99.99
2019-04-06T01:48:29.376Z,99.99
2019-04-06T01:49:29.459Z,99.99
2019-04-06T01:50:29.355Z,99.99
2019-04-06T01:51:29.350Z,99.99
2019-04-06T01:52:29.332Z,99.99
2019-04-06T01:53:29.323Z,99.99
2019-04-06T01:54:29.312Z,99.99
2019-04-06T01:55:29.300Z,99.99
2019-04-06T01:56:29.293Z,99.99
2019-04-06T01:57:29.283Z,99.99
2019-04-06T01:58:29.269Z,99.99
2019-04-06T01:59:29.258Z,99.99
2019-04-06T02:00:29.281Z,99.99
2019-04-06T02:01:29.237Z,99.99
2019-04-06T02:02:29.227Z,99.99
2019-04-06T02:03:29.218Z,99.99
2019-04-06T02:04:29.206Z,99.99
2019-04-06T02:05:29.195Z,99.99
2019-04-06T02:06:29.184Z,99.99
2019-04-06T02:07:29.173Z,99.99
2019-04-06T02:08:29.202Z,99.99
2019-04-06T02:09:29.153Z,99.99
2019-04-06T02:10:29.143Z,99.99
2019-04-06T02:11:29.130Z,99.99
2019-04-06T02:12:29.119Z,99.99
2019-04-06T02:13:29.109Z,99.99
2019-04-06T02:14:29.098Z,99.99
2019-04-06T02:15:29.155Z,99.99
2019-04-06T02:16:29.077Z,99.99
2019-04-06T02:17:29.073Z,99.99
2019-04-06T02:18:29.055Z,99.99
2019-04-06T02:19:29.043Z,99.99
2019-04-06T02:20:29.033Z,99.99
2019-04-06T02:21:29.033Z,99.99
2019-04-06T02:22:29.012Z,99.99
2019-04-06T02:23:29.000Z,99.99
2019-04-06T02:24:28.990Z,99.99
2019-04-06T02:25:28.980Z,99.99
2019-04-06T02:26:30.653Z,99.99
2019-04-06T02:27:28.964Z,99.99
2019-04-06T02:28:28.947Z,99.99
2019-04-06T02:29:28.948Z,99.99
2019-04-06T02:30:28.946Z,99.99
2019-04-06T02:31:28.916Z,99.99
2019-04-06T02:32:28.909Z,99.99
2019-04-06T02:33:28.897Z,99.99
2019-04-06T02:34:28.885Z,99.99
2019-04-06T02:35:28.876Z,99.99
2019-04-06T02:36:28.862Z,99.99
2019-04-06T02:37:28.855Z,99.99
2019-04-06T02:38:28.845Z,99.99
2019-04-06T02:39:28.831Z,99.99
2019-04-06T02:40:28.950Z,99.99
2019-04-06T02:41:28.811Z,99.99
2019-04-06T02:42:28.799Z,99.99
2019-04-06T02:43:28.789Z,99.99
2019-04-06T02:44:28.787Z,99.99
2019-04-06T02:45:28.787Z,99.99
2019-04-06T02:46:30.844Z,99.99
2019-04-06T02:47:28.747Z,99.99
2019-04-06T02:48:28.744Z,99.99
2019-04-06T02:49:28.735Z,99.99
2019-04-06T02:50:28.720Z,99.99
2019-04-06T02:51:28.717Z,99.99
2019-04-06T02:52:28.701Z,99.99
2019-04-06T02:53:28.836Z,99.99
2019-04-06T02:54:28.681Z,99.99
2019-04-06T02:55:28.680Z,99.99
2019-04-06T02:56:28.654Z,99.99
2019-04-06T02:57:28.648Z,99.99
2019-04-06T02:58:28.635Z,99.99
2019-04-06T02:59:28.622Z,99.99
2019-04-06T03:00:28.855Z,99.99
2019-04-06T03:01:28.600Z,99.99
2019-04-06T03:02:28.593Z,99.99
2019-04-06T03:03:28.578Z,99.99
2019-04-06T03:04:28.568Z,99.99
2019-04-06T03:05:28.558Z,99.99
2019-04-06T03:06:28.555Z,99.99
2019-04-06T03:07:28.556Z,99.99
2019-04-06T03:08:28.526Z,99.99
2019-04-06T03:09:28.544Z,99.99
2019-04-06T03:10:28.514Z,99.99
2019-04-06T03:11:28.493Z,99.99
2019-04-06T03:12:28.488Z,99.99
2019-04-06T03:13:28.474Z,99.99
2019-04-06T03:14:28.654Z,99.99
2019-04-06T03:15:28.459Z,99.99
2019-04-06T03:16:28.443Z,99.99
2019-04-06T03:17:28.432Z,99.99
2019-04-06T03:18:28.421Z,99.99
2019-04-06T03:19:28.410Z,99.99
2019-04-06T03:20:28.650Z,99.99
2019-04-06T03:21:28.388Z,99.99
2019-04-06T03:22:28.384Z,99.99
2019-04-06T03:23:28.367Z,99.99
2019-04-06T03:24:28.357Z,99.99
2019-04-06T03:25:28.348Z,99.99
2019-04-06T03:26:28.351Z,99.99
2019-04-06T03:27:28.326Z,99.99
2019-04-06T03:28:28.316Z,99.99
2019-04-06T03:29:28.309Z,99.99
2019-04-06T03:30:28.333Z,99.99
2019-04-06T03:31:28.693Z,99.99
2019-04-06T03:32:28.326Z,99.99
2019-04-06T03:33:28.379Z,99.99
2019-04-06T03:34:28.254Z,99.99
2019-04-06T03:35:28.592Z,99.99
2019-04-06T03:36:28.235Z,99.99
2019-04-06T03:37:28.307Z,99.99
2019-04-06T03:38:28.224Z,99.99
2019-04-06T03:39:28.203Z,99.99
2019-04-06T03:40:28.189Z,99.99
2019-04-06T03:41:28.179Z,99.99
2019-04-06T03:42:28.177Z,99.99
2019-04-06T03:43:28.158Z,99.99
2019-04-06T03:44:28.148Z,99.99
2019-04-06T03:45:28.284Z,99.99
2019-04-06T03:46:28.134Z,99.99
2019-04-06T03:47:28.224Z,99.99
2019-04-06T03:48:28.109Z,99.99
2019-04-06T03:49:28.096Z,99.99
2019-04-06T03:50:28.084Z,99.99
2019-04-06T03:51:28.074Z,99.99
2019-04-06T03:52:28.063Z,99.99
2019-04-06T03:53:28.052Z,99.99
2019-04-06T03:54:28.042Z,99.99
2019-04-06T03:55:28.079Z,99.99
2019-04-06T03:56:28.021Z,99.99
2019-04-06T03:57:28.019Z,99.99
2019-04-06T03:58:28.049Z,99.99
2019-04-06T03:59:27.987Z,99.99
2019-04-06T04:00:28.101Z,99.99
2019-04-06T04:01:27.966Z,99.99
2019-04-06T04:02:27.963Z,99.99
2019-04-06T04:03:27.945Z,99.99
2019-04-06T04:04:27.945Z,99.99
2019-04-06T04:05:27.929Z,99.99
2019-04-06T04:06:27.993Z,99.99
2019-04-06T04:07:27.902Z,99.99
2019-04-06T04:08:27.900Z,99.99
2019-04-06T04:09:27.882Z,99.99
2019-04-06T04:10:27.872Z,99.99
2019-04-06T04:11:27.866Z,99.99
2019-04-06T04:12:27.920Z,99.99
2019-04-06T04:13:27.838Z,99.99
2019-04-06T04:14:27.827Z,99.99
2019-04-06T04:15:27.815Z,99.99
2019-04-06T04:16:27.806Z,99.99
2019-04-06T04:17:27.795Z,99.99
2019-04-06T04:18:27.803Z,99.99
2019-04-06T04:19:27.772Z,99.99
2019-04-06T04:20:27.761Z,99.99
2019-04-06T04:21:27.751Z,99.99
2019-04-06T04:22:27.852Z,99.99
2019-04-06T04:23:27.755Z,99.99
2019-04-06T04:24:27.720Z,99.99
2019-04-06T04:25:27.822Z,99.99
2019-04-06T04:26:27.757Z,99.99
2019-04-06T04:27:30.295Z,99.99
2019-04-06T04:28:27.677Z,99.99
2019-04-06T04:29:27.852Z,99.99
2019-04-06T04:30:32.812Z,99.99
2019-04-06T04:31:27.645Z,99.99
2019-04-06T04:32:27.820Z,99.99
2019-04-06T04:33:27.628Z,99.99
2019-04-06T04:34:27.614Z,99.99
2019-04-06T04:35:27.603Z,99.99
2019-04-06T04:36:27.822Z,99.99
2019-04-06T04:37:27.581Z,99.99
2019-04-06T04:38:27.575Z,99.99
2019-04-06T04:39:27.559Z,99.99
2019-04-06T04:40:27.574Z,99.99
2019-04-06T04:41:27.538Z,99.99
2019-04-06T04:42:27.528Z,99.99
2019-04-06T04:43:27.668Z,99.99
2019-04-06T04:44:27.510Z,99.99
2019-04-06T04:45:27.500Z,99.99
2019-04-06T04:46:27.537Z,99.99
2019-04-06T04:47:27.482Z,99.99
2019-04-06T04:48:27.464Z,99.99
2019-04-06T04:49:27.454Z,99.99
2019-04-06T04:50:27.443Z,99.99
2019-04-06T04:51:27.431Z,99.99
2019-04-06T04:52:27.543Z,99.99
2019-04-06T04:53:27.410Z,99.99
2019-04-06T04:54:27.401Z,99.99
2019-04-06T04:55:27.396Z,99.99
2019-04-06T04:56:27.644Z,99.99
2019-04-06T04:57:39.299Z,99.99
2019-04-06T04:58:27.358Z,99.99
2019-04-06T04:59:27.415Z,99.99
2019-04-06T05:00:27.341Z,99.99
2019-04-06T05:01:27.328Z,99.99
2019-04-06T05:02:27.315Z,99.99
2019-04-06T05:03:27.305Z,99.99
2019-04-06T05:04:27.422Z,99.99
2019-04-06T05:05:27.283Z,99.99
2019-04-06T05:06:27.275Z,99.99
2019-04-06T05:07:27.262Z,99.99
2019-04-06T05:08:27.262Z,99.99
2019-04-06T05:09:27.241Z,99.99
2019-04-06T05:10:27.231Z,99.99
2019-04-06T05:11:27.219Z,99.99
2019-04-06T05:12:27.209Z,99.99
2019-04-06T05:13:27.199Z,99.99
2019-04-06T05:14:27.189Z,99.99
2019-04-06T05:15:27.177Z,99.99
2019-04-06T05:16:27.166Z,99.99
2019-04-06T05:17:27.156Z,99.99
2019-04-06T05:18:27.146Z,99.99
2019-04-06T05:19:27.134Z,99.99
2019-04-06T05:20:27.123Z,99.99
2019-04-06T05:21:27.169Z,99.99
2019-04-06T05:22:27.103Z,99.99
2019-04-06T05:23:27.092Z,99.99
2019-04-06T05:24:27.081Z,99.99
2019-04-06T05:25:27.070Z,99.99
2019-04-06T05:26:37.014Z,99.99
2019-04-06T05:27:27.049Z,99.99
2019-04-06T05:28:27.037Z,99.99
2019-04-06T05:29:27.026Z,99.99
2019-04-06T05:30:27.019Z,99.99
2019-04-06T05:31:27.005Z,99.99
2019-04-06T05:32:27.188Z,99.99
2019-04-06T05:33:26.983Z,99.99
2019-04-06T05:34:26.972Z,99.99
2019-04-06T05:35:27.103Z,99.99
2019-04-06T05:36:26.950Z,99.99
2019-04-06T05:37:26.940Z,99.99
2019-04-06T05:38:26.930Z,99.99
2019-04-06T05:39:26.918Z,99.99
2019-04-06T05:40:26.907Z,99.99
2019-04-06T05:41:26.896Z,99.99
2019-04-06T05:42:26.901Z,99.99
2019-04-06T05:43:26.875Z,99.99
2019-04-06T05:44:26.864Z,99.99
2019-04-06T05:45:26.860Z,99.99
2019-04-06T05:46:26.844Z,99.99
2019-04-06T05:47:26.835Z,99.99
2019-04-06T05:48:26.821Z,99.99
2019-04-06T05:49:26.813Z,99.99
2019-04-06T05:50:26.811Z,99.99
2019-04-06T05:51:26.789Z,99.99
2019-04-06T05:52:26.926Z,99.99
2019-04-06T05:53:26.769Z,99.99
2019-04-06T05:54:26.759Z,99.99
2019-04-06T05:55:26.749Z,99.99
2019-04-06T05:56:26.738Z,99.99
2019-04-06T05:57:26.856Z,99.99
2019-04-06T05:58:26.716Z,99.99
2019-04-06T05:59:26.709Z,99.99
2019-04-06T06:00:26.695Z,99.99
2019-04-06T06:01:26.686Z,99.99
2019-04-06T06:02:26.886Z,99.99
2019-04-06T06:03:26.777Z,99.99
2019-04-06T06:04:26.655Z,99.99
2019-04-06T06:05:26.643Z,99.99
2019-04-06T06:06:26.633Z,99.99
2019-04-06T06:07:26.621Z,99.99
2019-04-06T06:08:26.773Z,99.99
2019-04-06T06:09:26.601Z,99.99
2019-04-06T06:10:26.640Z,99.99
2019-04-06T06:11:26.581Z,99.99
2019-04-06T06:12:26.570Z,99.99
2019-04-06T06:13:26.559Z,99.99
2019-04-06T06:14:26.549Z,99.99
2019-04-06T06:15:26.537Z,99.99
2019-04-06T06:16:26.529Z,99.99
2019-04-06T06:17:26.615Z,99.99
2019-04-06T06:18:27.720Z,99.99
2019-04-06T06:19:26.496Z,99.99
2019-04-06T06:20:26.486Z,99.99
2019-04-06T06:21:26.541Z,99.99
2019-04-06T06:22:26.464Z,99.99
2019-04-06T06:23:26.453Z,99.99
2019-04-06T06:24:26.442Z,99.99
2019-04-06T06:25:26.435Z,99.99
2019-04-06T06:26:26.421Z,99.99
2019-04-06T06:27:26.410Z,99.99
2019-04-06T06:28:26.401Z,99.99
2019-04-06T06:29:26.393Z,99.99
2019-04-06T06:30:26.379Z,99.99
2019-04-06T06:31:26.368Z,99.99
2019-04-06T06:32:26.358Z,99.99
2019-04-06T06:33:26.477Z,99.99
2019-04-06T06:34:26.344Z,99.99
2019-04-06T06:35:26.326Z,99.99
2019-04-06T06:36:26.316Z,99.99
2019-04-06T06:37:26.306Z,99.99
2019-04-06T06:38:26.296Z,99.99
2019-04-06T06:39:26.285Z,99.99
2019-04-06T06:40:26.277Z,99.99
2019-04-06T06:41:26.344Z,99.99
2019-04-06T06:42:26.256Z,99.99
2019-04-06T06:43:26.245Z,99.99
2019-04-06T06:44:26.235Z,99.99
2019-04-06T06:45:26.225Z,99.99
2019-04-06T06:46:26.216Z,99.99
2019-04-06T06:47:26.205Z,99.99
2019-04-06T06:48:26.196Z,99.99
2019-04-06T06:49:26.186Z,99.99
2019-04-06T06:50:26.184Z,99.99
2019-04-06T06:51:26.336Z,99.99
2019-04-06T06:52:26.156Z,99.99
2019-04-06T06:53:26.147Z,99.99
2019-04-06T06:54:26.549Z,99.99
2019-04-06T06:55:26.903Z,99.99
2019-04-06T06:56:26.127Z,99.99
2019-04-06T06:57:26.109Z,99.99
2019-04-06T06:58:26.325Z,99.99
2019-04-06T06:59:26.091Z,99.99
2019-04-06T07:00:26.080Z,99.99
2019-04-06T07:01:26.235Z,99.99
2019-04-06T07:02:26.192Z,99.99
2019-04-06T07:03:26.051Z,99.99
2019-04-06T07:04:26.042Z,99.99
2019-04-06T07:05:26.033Z,99.99
2019-04-06T07:06:26.023Z,99.99
2019-04-06T07:07:26.013Z,99.99
2019-04-06T07:08:26.160Z,99.99
2019-04-06T07:09:25.994Z,99.99
2019-04-06T07:10:26.274Z,99.99
2019-04-06T07:11:26.005Z,99.99
2019-04-06T07:12:25.965Z,99.99
2019-04-06T07:13:25.957Z,99.99
2019-04-06T07:14:26.107Z,99.99
2019-04-06T07:15:25.954Z,99.99
2019-04-06T07:16:25.931Z,99.99
2019-04-06T07:17:25.919Z,99.99
2019-04-06T07:18:25.911Z,99.03
2019-04-06T07:19:26.162Z,98.74
2019-04-06T07:20:25.951Z,98.08
2019-04-06T07:21:25.884Z,97.60
2019-04-06T07:22:25.877Z,97.51
2019-04-06T07:23:25.867Z,96.75
2019-04-06T07:24:26.069Z,96.03
2019-04-06T07:25:25.849Z,95.75
2019-04-06T07:26:25.841Z,96.32
2019-04-06T07:27:25.832Z,95.27
2019-04-06T07:28:37.039Z,95.27
2019-04-06T07:29:25.822Z,93.60
2019-04-06T07:30:25.810Z,90.84
2019-04-06T07:31:25.800Z,90.55
2019-04-06T07:32:26.005Z,90.55
2019-04-06T07:33:25.787Z,89.36
2019-04-06T07:34:25.857Z,88.78
2019-04-06T07:35:25.775Z,88.31
2019-04-06T07:36:25.769Z,85.87
2019-04-06T07:37:25.763Z,85.58
2019-04-06T07:38:25.758Z,85.68
2019-04-06T07:39:25.759Z,84.16
2019-04-06T07:40:25.750Z,83.81
2019-04-06T07:41:25.743Z,83.24
2019-04-06T07:42:25.744Z,83.05
2019-04-06T07:43:25.811Z,82.15
2019-04-06T07:44:25.729Z,83.67
2019-04-06T07:45:25.724Z,83.48
2019-04-06T07:46:25.718Z,83.92
2019-04-06T07:47:25.712Z,85.16
2019-04-06T07:48:25.708Z,84.49
2019-04-06T07:49:25.702Z,84.40
2019-04-06T07:50:25.697Z,86.02
2019-04-06T07:51:25.691Z,85.25
2019-04-06T07:52:25.686Z,85.97
2019-04-06T07:53:25.682Z,83.58
2019-04-06T07:54:25.718Z,81.77
2019-04-06T07:55:25.676Z,82.34
2019-04-06T07:56:25.669Z,82.78
2019-04-06T07:57:25.665Z,83.67
2019-04-06T07:58:25.868Z,84.16
2019-04-06T07:59:25.655Z,82.91
2019-04-06T08:00:25.653Z,82.15
2019-04-06T08:01:25.815Z,81.38
2019-04-06T08:02:25.649Z,81.67
2019-04-06T08:03:25.638Z,81.96
2019-04-06T08:04:25.852Z,81.77
2019-04-06T08:05:25.630Z,81.04
2019-04-06T08:06:25.628Z,79.96
2019-04-06T08:07:25.620Z,81.67
2019-04-06T08:08:25.837Z,82.38
2019-04-06T08:09:25.612Z,82.00
2019-04-06T08:10:25.782Z,80.95
2019-04-06T08:11:25.603Z,79.85
2019-04-06T08:12:25.618Z,79.94
2019-04-06T08:13:25.596Z,79.75
2019-04-06T08:14:25.595Z,80.27
2019-04-06T08:15:25.589Z,78.26
2019-04-06T08:16:25.586Z,78.01
2019-04-06T08:17:25.583Z,72.81
2019-04-06T08:18:25.581Z,73.48
2019-04-06T08:19:25.578Z,72.87
2019-04-06T08:20:25.575Z,74.59
2019-04-06T08:21:25.787Z,75.54
2019-04-06T08:22:25.622Z,74.30
2019-04-06T08:23:25.567Z,73.83
2019-04-06T08:24:25.561Z,73.35
2019-04-06T08:25:25.560Z,74.53
2019-04-06T08:26:25.557Z,74.63
2019-04-06T08:27:25.591Z,75.39
2019-04-06T08:28:25.740Z,73.48
2019-04-06T08:29:25.747Z,72.62
2019-04-06T08:30:25.541Z,73.48
2019-04-06T08:31:25.537Z,72.97
2019-04-06T08:32:25.608Z,70.92
2019-04-06T08:33:25.530Z,71.02
2019-04-06T08:34:25.537Z,72.45
2019-04-06T08:35:26.591Z,72.89
2019-04-06T08:36:25.515Z,71.59
2019-04-06T08:37:25.702Z,71.98
2019-04-06T08:38:25.505Z,72.13
2019-04-06T08:39:26.163Z,72.17
2019-04-06T08:40:25.548Z,73.08
2019-04-06T08:41:25.488Z,71.94
2019-04-06T08:42:25.482Z,71.02
2019-04-06T08:43:25.479Z,69.93
2019-04-06T08:44:25.754Z,68.88
2019-04-06T08:45:25.470Z,69.27
2019-04-06T08:46:25.619Z,69.37
2019-04-06T08:47:25.607Z,71.31
2019-04-06T08:48:25.445Z,67.40
2019-04-06T08:49:25.439Z,67.97
2019-04-06T08:50:25.434Z,67.58
2019-04-06T08:51:25.426Z,65.96
2019-04-06T08:52:25.420Z,65.30
2019-04-06T08:53:25.415Z,67.11
2019-04-06T08:54:25.409Z,67.43
2019-04-06T08:55:25.713Z,65.80
2019-04-06T08:56:25.398Z,66.03
2019-04-06T08:57:25.393Z,64.88
2019-04-06T08:58:25.388Z,63.83
2019-04-06T08:59:25.384Z,63.48
2019-04-06T09:00:25.506Z,62.04
2019-04-06T09:01:25.377Z,61.38
2019-04-06T09:02:25.375Z,60.90
2019-04-06T09:03:25.372Z,62.52
2019-04-06T09:04:25.367Z,63.19
2019-04-06T09:05:25.367Z,63.29
2019-04-06T09:06:25.362Z,63.93
2019-04-06T09:07:25.358Z,65.55
2019-04-06T09:08:25.574Z,63.73
2019-04-06T09:09:25.360Z,64.69
2019-04-06T09:10:25.349Z,64.25
2019-04-06T09:11:25.347Z,62.43
2019-04-06T09:12:25.599Z,61.66
2019-04-06T09:13:25.341Z,63.86
2019-04-06T09:14:25.382Z,62.55
2019-04-06T09:15:25.336Z,63.13
2019-04-06T09:16:25.559Z,62.68
2019-04-06T09:17:25.380Z,61.72
2019-04-06T09:18:25.331Z,60.16
2019-04-06T09:19:25.337Z,60.45
2019-04-06T09:20:25.327Z,60.45
2019-04-06T09:21:25.327Z,61.41
2019-04-06T09:22:25.326Z,60.93
2019-04-06T09:23:25.473Z,59.97
2019-04-06T09:24:25.324Z,61.69
2019-04-06T09:25:25.330Z,63.26
2019-04-06T09:26:25.323Z,62.04
2019-04-06T09:27:25.321Z,61.28
2019-04-06T09:28:25.388Z,60.99
2019-04-06T09:29:25.321Z,62.14
2019-04-06T09:30:25.322Z,59.94
2019-04-06T09:31:25.320Z,58.22
2019-04-06T09:32:25.319Z,60.10
2019-04-06T09:33:25.319Z,60.32
2019-04-06T09:34:25.319Z,59.84
2019-04-06T09:35:25.316Z,59.77
2019-04-06T09:36:25.322Z,55.46
2019-04-06T09:37:25.317Z,55.46
2019-04-06T09:38:25.369Z,55.18
2019-04-06T09:39:25.318Z,56.90
2019-04-06T09:40:27.656Z,57.19
2019-04-06T09:41:26.309Z,56.97
2019-04-06T09:42:25.320Z,56.94
2019-04-06T09:43:25.419Z,57.13
2019-04-06T09:44:25.319Z,59.05
2019-04-06T09:45:25.318Z,59.05
2019-04-06T09:46:25.318Z,60.00
2019-04-06T09:47:25.319Z,58.12
2019-04-06T09:48:25.316Z,55.98
2019-04-06T09:49:25.319Z,58.12
2019-04-06T09:50:25.325Z,57.16
2019-04-06T09:51:25.316Z,55.34
2019-04-06T09:52:25.699Z,57.06
2019-04-06T09:53:25.401Z,56.97
2019-04-06T09:54:25.492Z,55.73
2019-04-06T09:55:25.318Z,55.15
2019-04-06T09:56:25.318Z,55.44
2019-04-06T09:57:25.321Z,54.57
2019-04-06T09:58:25.321Z,55.46
2019-04-06T09:59:34.846Z,54.70
2019-04-06T10:00:25.322Z,53.77
2019-04-06T10:01:32.479Z,53.96
2019-04-06T10:02:25.327Z,52.91
2019-04-06T10:03:25.407Z,53.67
2019-04-06T10:04:25.351Z,54.82
2019-04-06T10:05:25.333Z,55.78
2019-04-06T10:06:25.336Z,54.66
2019-04-06T10:07:25.343Z,54.94
2019-04-06T10:08:25.570Z,53.41
2019-04-06T10:09:25.347Z,53.79
2019-04-06T10:10:25.351Z,52.55
2019-04-06T10:11:25.351Z,53.31
2019-04-06T10:12:25.651Z,53.50
2019-04-06T10:13:25.405Z,53.70
2019-04-06T10:14:25.362Z,55.33
2019-04-06T10:15:25.364Z,55.04
2019-04-06T10:16:25.368Z,54.11
2019-04-06T10:17:25.376Z,53.08
2019-04-06T10:18:25.548Z,54.71
2019-04-06T10:19:25.433Z,53.39
2019-04-06T10:20:25.385Z,50.13
2019-04-06T10:21:25.410Z,49.52
2019-04-06T10:22:25.397Z,50.61
2019-04-06T10:23:25.401Z,49.93
2019-04-06T10:24:25.407Z,51.86
2019-04-06T10:25:25.468Z,51.95
2019-04-06T10:26:25.418Z,51.09
2019-04-06T10:27:25.421Z,52.34
2019-04-06T10:28:25.428Z,51.98
2019-04-06T10:29:25.435Z,49.55
2019-04-06T10:30:25.444Z,50.87
2019-04-06T10:31:25.445Z,53.27
2019-04-06T10:32:25.453Z,49.72
2019-04-06T10:33:25.457Z,49.12
2019-04-06T10:34:25.463Z,50.94
2019-04-06T10:35:25.472Z,52.45
2019-04-06T10:36:25.471Z,53.22
2019-04-06T10:37:25.672Z,54.66
2019-04-06T10:38:25.482Z,54.85
2019-04-06T10:39:25.500Z,55.04
2019-04-06T10:40:25.554Z,54.85
2019-04-06T10:41:25.492Z,54.97
2019-04-06T10:42:28.174Z,55.35
2019-04-06T10:43:25.499Z,54.61
2019-04-06T10:44:25.508Z,52.60
2019-04-06T10:45:25.508Z,53.36
2019-04-06T10:46:25.513Z,54.64
2019-04-06T10:47:25.518Z,51.76
2019-04-06T10:48:25.521Z,52.53
2019-04-06T10:49:25.526Z,52.24
2019-04-06T10:50:25.531Z,53.80
2019-04-06T10:51:25.536Z,50.63
2019-04-06T10:52:25.541Z,49.84
2019-04-06T10:53:25.546Z,50.61
2019-04-06T10:54:25.551Z,51.67
2019-04-06T10:55:25.555Z,51.64
2019-04-06T10:56:25.560Z,51.45
2019-04-06T10:57:25.565Z,51.73
2019-04-06T10:58:25.569Z,51.83
2019-04-06T10:59:25.573Z,52.02
2019-04-06T11:00:25.578Z,52.12
2019-04-06T11:01:25.584Z,52.62
2019-04-06T11:02:25.675Z,52.43
2019-04-06T11:03:25.590Z,54.64
2019-04-06T11:04:25.601Z,52.75
2019-04-06T11:05:25.614Z,50.63
2019-04-06T11:06:25.604Z,53.35
2019-04-06T11:07:25.608Z,54.02
2019-04-06T11:08:25.613Z,52.00
2019-04-06T11:09:25.618Z,50.08
2019-04-06T11:10:25.756Z,51.91
2019-04-06T11:11:25.628Z,49.12
2019-04-06T11:12:25.633Z,51.43
2019-04-06T11:13:25.638Z,50.76
2019-04-06T11:14:25.665Z,51.91
2019-04-06T11:15:25.653Z,50.95
2019-04-06T11:16:25.654Z,49.67
2019-04-06T11:17:25.659Z,49.26
2019-04-06T11:18:25.665Z,50.87
2019-04-06T11:19:25.673Z,52.48
2019-04-06T11:20:25.673Z,52.31
2019-04-06T11:21:25.677Z,53.20
2019-04-06T11:22:25.681Z,53.68
2019-04-06T11:23:25.687Z,52.05
2019-04-06T11:24:25.689Z,53.52
2019-04-06T11:25:25.693Z,51.88
2019-04-06T11:26:25.703Z,50.82
2019-04-06T11:27:25.703Z,50.08
2019-04-06T11:28:25.716Z,49.67
2019-04-06T11:29:25.892Z,51.02
2019-04-06T11:30:25.716Z,52.77
2019-04-06T11:31:25.719Z,51.72
2019-04-06T11:32:25.724Z,48.74
2019-04-06T11:33:25.737Z,48.61
2019-04-06T11:34:25.734Z,50.03
2019-04-06T11:35:25.956Z,50.42
2019-04-06T11:36:25.740Z,49.93
2019-04-06T11:37:25.743Z,49.62
2019-04-06T11:38:25.747Z,53.34
2019-04-06T11:39:25.753Z,52.98
2019-04-06T11:40:25.804Z,51.09
2019-04-06T11:41:25.756Z,51.95
2019-04-06T11:42:25.933Z,53.42
2019-04-06T11:43:25.762Z,54.12
2019-04-06T11:44:25.766Z,50.40
2019-04-06T11:45:25.781Z,49.72
2019-04-06T11:46:25.776Z,49.94
2019-04-06T11:47:25.778Z,47.99
2019-04-06T11:48:25.798Z,48.18
2019-04-06T11:49:25.786Z,50.30
2019-04-06T11:50:25.791Z,49.79
2019-04-06T11:51:25.795Z,49.89
2019-04-06T11:52:25.799Z,49.60
2019-04-06T11:53:26.081Z,49.89
2019-04-06T11:54:25.810Z,49.82
2019-04-06T11:55:26.101Z,51.43
2019-04-06T11:56:25.817Z,50.85
2019-04-06T11:57:26.139Z,52.61
2019-04-06T11:58:25.825Z,51.55
2019-04-06T11:59:26.149Z,49.43
2019-04-06T12:00:27.552Z,48.38
2019-04-06T12:01:25.838Z,49.53
2019-04-06T12:02:25.842Z,49.82
2019-04-06T12:03:25.846Z,50.81
2019-04-06T12:04:26.077Z,50.06
2019-04-06T12:05:26.140Z,50.83
2019-04-06T12:06:25.861Z,49.00
2019-04-06T12:07:26.144Z,48.03
2019-04-06T12:08:25.869Z,50.47
2019-04-06T12:09:26.177Z,49.87
2019-04-06T12:10:25.882Z,48.74
2019-04-06T12:11:25.884Z,48.13
2019-04-06T12:12:25.889Z,46.86
2019-04-06T12:13:25.899Z,48.49
2019-04-06T12:14:25.898Z,48.97
2019-04-06T12:15:25.906Z,48.11
2019-04-06T12:16:25.907Z,47.34
2019-04-06T12:17:25.911Z,48.95
2019-04-06T12:18:25.912Z,48.76
2019-04-06T12:19:25.927Z,50.01
2019-04-06T12:20:26.190Z,48.69
2019-04-06T12:21:26.137Z,49.94
2019-04-06T12:22:25.953Z,49.36
2019-04-06T12:23:25.927Z,49.48
2019-04-06T12:24:25.930Z,48.33
2019-04-06T12:25:25.932Z,49.68
2019-04-06T12:26:26.071Z,49.10
2019-04-06T12:27:25.939Z,49.77
2019-04-06T12:28:25.941Z,48.83
2019-04-06T12:29:26.157Z,48.44
2019-04-06T12:30:36.965Z,48.83
2019-04-06T12:31:25.949Z,49.51
2019-04-06T12:32:25.952Z,47.94
2019-04-06T12:33:25.955Z,49.58
2019-04-06T12:34:25.958Z,51.62
2019-04-06T12:35:25.960Z,50.88
2019-04-06T12:36:26.204Z,49.63
2019-04-06T12:37:26.089Z,47.19
2019-04-06T12:38:25.969Z,47.94
2019-04-06T12:39:26.118Z,49.48
2019-04-06T12:40:25.973Z,50.06
2019-04-06T12:41:26.233Z,49.99
2019-04-06T12:42:26.016Z,49.02
2019-04-06T12:43:25.979Z,48.86
2019-04-06T12:44:25.981Z,47.12
2019-04-06T12:45:26.086Z,47.80
2019-04-06T12:46:25.991Z,47.34
2019-04-06T12:47:26.373Z,47.24
2019-04-06T12:48:26.195Z,45.34
2019-04-06T12:49:25.992Z,44.76
2019-04-06T12:50:26.272Z,45.53
2019-04-06T12:51:25.995Z,44.73
2019-04-06T12:52:25.998Z,44.71